Time;durP1;ratioP1;P1;durP2;ratioP2;P2;SDS_P1;SDS_P2;PMS_P1;PMS_P2;Temp;Humidity;BMP_temperature;BMP_pressure;BME280_temperature;BME280_humidity;BME280_pressure;Samples;Min_cycle;Max_cycle;Signal;HPM_P1;HPM_P2
2021/07/03 00:00:00;;;;;;;11.80;7.43;;;23.60;63.00;;;;;;5239086;28;20532;-53
2021/07/03 00:02:32;;;;;;;12.50;7.60;;;23.60;63.00;;;;;;5206930;28;20044;-51
2021/07/03 00:05:06;;;;;;;9.88;6.18;;;23.50;63.10;;;;;;5235916;28;20552;-57
2021/07/03 00:07:38;;;;;;;12.27;6.88;;;23.60;63.10;;;;;;5233406;28;20558;-46
2021/07/03 00:10:11;;;;;;;11.00;7.45;;;23.50;63.20;;;;;;5241614;28;20849;-55
2021/07/03 00:12:45;;;;;;;12.32;7.18;;;23.60;63.30;;;;;;5239332;28;20417;-49
2021/07/03 00:15:21;;;;;;;9.40;6.50;;;23.50;63.30;;;;;;5238248;28;20040;-47
2021/07/03 00:17:56;;;;;;;13.23;7.28;;;23.50;63.30;;;;;;5223271;28;20053;-52
2021/07/03 00:20:29;;;;;;;14.88;7.03;;;23.50;63.30;;;;;;5202504;28;20058;-53
2021/07/03 00:23:04;;;;;;;16.97;7.47;;;23.50;63.40;;;;;;5222385;28;20059;-47
2021/07/03 00:25:36;;;;;;;11.10;6.85;;;23.50;63.40;;;;;;5235923;28;20060;-51
2021/07/03 00:28:09;;;;;;;15.80;7.25;;;23.50;63.40;;;;;;5242856;28;20048;-50
2021/07/03 00:30:42;;;;;;;14.73;7.35;;;23.40;63.30;;;;;;5239569;28;20044;-59
2021/07/03 00:33:15;;;;;;;10.73;6.85;;;23.40;63.30;;;;;;5238521;28;20045;-47
2021/07/03 00:35:48;;;;;;;17.57;7.57;;;23.40;63.30;;;;;;5237464;28;20040;-53
2021/07/03 00:38:20;;;;;;;10.77;6.07;;;23.40;63.30;;;;;;5238581;28;20430;-47
2021/07/03 00:40:53;;;;;;;15.37;6.43;;;23.40;63.50;;;;;;5239890;28;20500;-52
2021/07/03 00:43:25;;;;;;;12.23;7.20;;;23.40;63.40;;;;;;5238548;28;20048;-47
2021/07/03 00:45:58;;;;;;;10.65;6.75;;;23.40;63.50;;;;;;5241354;28;20048;-49
2021/07/03 00:48:30;;;;;;;10.50;6.95;;;23.40;63.50;;;;;;5239129;28;20048;-50
2021/07/03 00:51:03;;;;;;;11.80;6.30;;;23.40;63.50;;;;;;5241453;28;20044;-54
2021/07/03 00:53:39;;;;;;;8.57;4.75;;;23.40;63.50;;;;;;5222880;28;20052;-50
2021/07/03 00:56:12;;;;;;;11.30;6.53;;;23.30;63.40;;;;;;5224570;28;20052;-48
2021/07/03 00:58:44;;;;;;;11.50;6.43;;;23.30;63.40;;;;;;5237016;28;20036;-54
2021/07/03 01:01:17;;;;;;;11.27;6.40;;;23.30;63.30;;;;;;5237625;28;20057;-49
2021/07/03 01:03:50;;;;;;;11.95;6.43;;;23.30;63.30;;;;;;5237466;28;20044;-58
2021/07/03 01:06:24;;;;;;;10.93;5.93;;;23.30;63.30;;;;;;5237419;28;20036;-51
2021/07/03 01:08:58;;;;;;;10.40;6.30;;;23.30;63.30;;;;;;5222000;28;20726;-56
2021/07/03 01:11:31;;;;;;;10.60;6.68;;;23.30;63.40;;;;;;5225171;28;20645;-46
2021/07/03 01:14:03;;;;;;;10.93;6.53;;;23.30;63.30;;;;;;5219371;28;20516;-50
2021/07/03 01:16:37;;;;;;;10.93;6.20;;;23.30;63.20;;;;;;5221142;28;20293;-55
2021/07/03 01:19:10;;;;;;;12.15;6.22;;;23.30;63.30;;;;;;5224468;28;20647;-51
2021/07/03 01:21:53;;;;;;;13.18;5.70;;;23.20;63.20;;;;;;5240378;28;20044;-50
2021/07/03 01:24:26;;;;;;;9.05;6.03;;;23.20;63.20;;;;;;5211170;28;20064;-46
2021/07/03 01:26:59;;;;;;;11.80;5.90;;;23.20;63.30;;;;;;5244596;28;20063;-50
2021/07/03 01:29:33;;;;;;;13.43;5.97;;;23.20;63.20;;;;;;5219142;28;20048;-55
2021/07/03 01:32:05;;;;;;;;;;;23.20;63.20;;;;;;5225237;28;20051;-50
2021/07/03 01:34:43;;;;;;;8.73;6.00;;;23.10;63.20;;;;;;5237120;28;19924;-51
2021/07/03 01:37:24;;;;;;;10.40;6.18;;;23.20;63.20;;;;;;5238316;28;20044;-53
2021/07/03 01:40:03;;;;;;;9.48;6.00;;;23.20;63.20;;;;;;5221058;28;20062;-49
2021/07/03 01:42:38;;;;;;;8.25;5.90;;;23.20;63.20;;;;;;5227277;28;20075;-48
2021/07/03 01:45:12;;;;;;;10.55;5.80;;;23.10;63.10;;;;;;5205403;28;20055;-46
2021/07/03 01:47:46;;;;;;;8.25;5.78;;;23.10;63.20;;;;;;5220587;28;20044;-48
2021/07/03 01:50:21;;;;;;;9.15;6.18;;;23.10;63.20;;;;;;5220193;28;20424;-56
2021/07/03 01:52:53;;;;;;;7.20;5.40;;;23.10;63.10;;;;;;5247119;28;20518;-50
2021/07/03 01:55:30;;;;;;;11.40;5.38;;;23.10;63.10;;;;;;5230326;28;20059;-49
2021/07/03 01:58:02;;;;;;;9.10;5.95;;;23.10;63.20;;;;;;5219005;28;20044;-55
2021/07/03 02:00:56;;;;;;;11.25;6.10;;;23.10;63.20;;;;;;5226818;28;20059;-47
2021/07/03 02:03:30;;;;;;;9.45;6.25;;;23.10;63.20;;;;;;5220692;28;20043;-52
2021/07/03 02:06:06;;;;;;;9.65;6.30;;;23.10;63.20;;;;;;5221669;28;20521;-48
2021/07/03 02:08:55;;;;;;;13.65;5.57;;;23.10;63.20;;;;;;5221142;28;20795;-49
2021/07/03 02:11:28;;;;;;;8.48;6.57;;;23.10;63.10;;;;;;5234261;28;20036;-56
2021/07/03 02:14:10;;;;;;;11.32;6.00;;;23.10;63.20;;;;;;5224672;28;20055;-46
2021/07/03 02:16:51;;;;;;;14.93;6.05;;;23.10;63.20;;;;;;5224694;28;20040;-48
2021/07/03 02:19:24;;;;;;;10.88;5.85;;;23.10;63.10;;;;;;5233888;28;20045;-57
2021/07/03 02:22:00;;;;;;;9.30;5.30;;;23.10;63.10;;;;;;5215271;28;20045;-52
2021/07/03 02:24:42;;;;;;;12.38;5.60;;;23.10;62.90;;;;;;5224408;28;20059;-50
2021/07/03 02:27:16;;;;;;;8.45;5.97;;;23.00;62.70;;;;;;5220942;28;20052;-52
2021/07/03 02:29:51;;;;;;;11.93;5.93;;;23.00;62.70;;;;;;5240474;28;20058;-47
2021/07/03 02:32:23;;;;;;;16.00;5.43;;;23.00;62.80;;;;;;5225401;28;20044;-49
2021/07/03 02:34:56;;;;;;;13.25;5.75;;;23.00;63.30;;;;;;5229581;28;20048;-48
2021/07/03 02:37:28;;;;;;;9.52;6.15;;;23.00;62.60;;;;;;5240452;28;20045;-53
2021/07/03 02:40:05;;;;;;;11.60;5.20;;;23.00;62.50;;;;;;5229089;28;20516;-55
2021/07/03 02:42:41;;;;;;;7.82;5.53;;;23.00;62.40;;;;;;5245568;28;20051;-51
2021/07/03 02:45:17;;;;;;;11.07;6.22;;;23.00;62.30;;;;;;5223505;28;20052;-50
2021/07/03 02:47:50;;;;;;;8.35;5.75;;;23.00;62.30;;;;;;5220247;28;20075;-46
2021/07/03 02:50:24;;;;;;;10.27;5.28;;;23.00;62.30;;;;;;5242932;28;20052;-48
2021/07/03 02:53:01;;;;;;;6.70;4.97;;;23.00;62.20;;;;;;5230920;28;20330;-56
2021/07/03 02:55:34;;;;;;;7.78;5.45;;;23.00;62.20;;;;;;5240297;28;20052;-46
2021/07/03 02:58:08;;;;;;;8.88;5.10;;;23.00;62.00;;;;;;5227450;28;20048;-59
2021/07/03 03:00:40;;;;;;;9.80;5.57;;;22.90;61.90;;;;;;5225530;28;21909;-48
2021/07/03 03:03:13;;;;;;;6.88;5.25;;;22.90;61.90;;;;;;5221375;28;20040;-57
2021/07/03 03:05:46;;;;;;;12.80;5.90;;;22.90;61.90;;;;;;5233772;28;20052;-48
2021/07/03 03:08:19;;;;;;;11.00;5.85;;;22.90;61.80;;;;;;5239547;28;20037;-51
2021/07/03 03:10:51;;;;;;;11.93;5.53;;;22.90;61.80;;;;;;5229708;28;20036;-53
2021/07/03 03:13:24;;;;;;;11.45;5.53;;;22.90;61.70;;;;;;5218944;28;20036;-56
2021/07/03 03:15:57;;;;;;;8.35;5.53;;;22.90;61.60;;;;;;5226819;28;20504;-56
2021/07/03 03:18:30;;;;;;;7.85;5.82;;;22.90;61.40;;;;;;5224682;28;20413;-51
2021/07/03 03:21:02;;;;;;;11.17;5.33;;;22.90;61.50;;;;;;5193822;28;20253;-49
2021/07/03 03:23:35;;;;;;;9.95;5.47;;;22.90;61.40;;;;;;5237838;28;20049;-47
2021/07/03 03:26:08;;;;;;;7.95;5.05;;;22.90;61.50;;;;;;5220839;28;20051;-48
2021/07/03 03:28:47;;;;;;;7.07;5.20;;;22.90;61.40;;;;;;5224610;28;20043;-60
2021/07/03 03:31:19;;;;;;;8.48;5.15;;;22.90;61.30;;;;;;5238465;28;20048;-50
2021/07/03 03:33:56;;;;;;;8.75;5.60;;;22.90;61.40;;;;;;5219314;28;20044;-48
2021/07/03 03:36:29;;;;;;;8.05;4.95;;;22.90;61.30;;;;;;5230345;28;20358;-50
2021/07/03 03:39:03;;;;;;;7.70;5.15;;;22.90;61.30;;;;;;5215534;28;20063;-49
2021/07/03 03:41:37;;;;;;;9.80;5.20;;;22.90;61.30;;;;;;5226552;28;20047;-48
2021/07/03 03:44:14;;;;;;;12.40;5.70;;;22.80;61.30;;;;;;5223383;28;20295;-52
2021/07/03 03:46:52;;;;;;;11.75;5.50;;;22.90;61.40;;;;;;5224582;28;20056;-48
2021/07/03 03:49:28;;;;;;;10.30;4.88;;;22.80;61.20;;;;;;5228943;28;20052;-48
2021/07/03 03:52:05;;;;;;;9.40;5.38;;;22.80;61.20;;;;;;5238103;28;20493;-53
2021/07/03 03:54:38;;;;;;;;;;;22.80;61.00;;;;;;5214541;28;20519;-50
2021/07/03 03:57:23;;;;;;;10.18;5.25;;;22.70;60.90;;;;;;5224879;28;20421;-50
2021/07/03 04:00:01;;;;;;;10.40;5.40;;;22.80;61.20;;;;;;5225681;28;20040;-53
2021/07/03 04:02:34;;;;;;;9.30;5.22;;;22.80;61.20;;;;;;5229324;28;20044;-49
2021/07/03 04:05:08;;;;;;;7.25;5.40;;;22.80;61.10;;;;;;5217732;28;20060;-49
2021/07/03 04:07:44;;;;;;;9.10;5.70;;;22.80;61.20;;;;;;5211814;28;20048;-52
2021/07/03 04:10:18;;;;;;;7.03;5.45;;;22.80;61.30;;;;;;5229738;28;20048;-51
2021/07/03 04:12:51;;;;;;;8.13;5.80;;;22.80;61.30;;;;;;5199362;28;20052;-50
2021/07/03 04:15:23;;;;;;;9.50;5.33;;;22.80;61.20;;;;;;5239883;28;20493;-56
2021/07/03 04:17:56;;;;;;;7.47;5.45;;;22.80;61.30;;;;;;5214956;28;20051;-48
2021/07/03 04:20:29;;;;;;;11.15;5.13;;;22.80;61.50;;;;;;5243683;28;20059;-52
2021/07/03 04:23:02;;;;;;;6.78;5.40;;;22.80;61.50;;;;;;5247087;28;20055;-54
2021/07/03 04:25:34;;;;;;;6.95;4.72;;;22.80;61.50;;;;;;5243595;28;20044;-48
2021/07/03 04:28:07;;;;;;;6.90;4.68;;;22.80;61.70;;;;;;5240242;28;20049;-47
2021/07/03 04:30:40;;;;;;;5.95;5.13;;;22.80;61.60;;;;;;5242818;28;20238;-51
2021/07/03 04:33:12;;;;;;;7.70;5.27;;;22.80;61.70;;;;;;5221915;28;20062;-51
2021/07/03 04:35:45;;;;;;;7.38;5.60;;;22.80;61.90;;;;;;5235456;28;20045;-46
2021/07/03 04:38:17;;;;;;;7.20;5.00;;;22.80;62.00;;;;;;5241061;28;20049;-51
2021/07/03 04:40:50;;;;;;;7.23;5.53;;;22.80;62.00;;;;;;5242408;28;20496;-52
2021/07/03 04:43:22;;;;;;;6.47;4.68;;;22.80;62.00;;;;;;5225161;28;20511;-48
2021/07/03 04:45:54;;;;;;;7.15;5.22;;;22.80;62.10;;;;;;5240929;28;20162;-49
2021/07/03 04:48:27;;;;;;;5.70;5.00;;;22.80;62.20;;;;;;5216712;28;20056;-49
2021/07/03 04:50:59;;;;;;;6.60;5.57;;;22.80;62.20;;;;;;5221078;28;20052;-49
2021/07/03 04:53:32;;;;;;;7.40;5.70;;;22.80;62.20;;;;;;5213358;28;20044;-53
2021/07/03 04:56:05;;;;;;;6.68;4.80;;;22.80;62.40;;;;;;5228962;28;20528;-51
2021/07/03 04:58:38;;;;;;;12.53;5.33;;;22.80;62.40;;;;;;5238396;28;20045;-50
2021/07/03 05:01:11;;;;;;;;;;;22.80;62.40;;;;;;5244605;28;20048;-48
2021/07/03 05:03:44;;;;;;;9.45;5.28;;;22.70;62.50;;;;;;5238515;28;19928;-52
2021/07/03 05:06:17;;;;;;;9.23;5.38;;;22.70;62.50;;;;;;5240145;28;20064;-54
2021/07/03 05:08:53;;;;;;;8.93;5.35;;;22.80;62.50;;;;;;5212557;28;20047;-53
2021/07/03 05:11:25;;;;;;;9.65;5.30;;;22.80;62.60;;;;;;5243832;28;20055;-47
2021/07/03 05:13:58;;;;;;;8.02;5.60;;;22.70;62.60;;;;;;5234676;28;20070;-49
2021/07/03 05:16:31;;;;;;;8.82;5.25;;;22.80;62.70;;;;;;5243710;28;20041;-49
2021/07/03 05:19:08;;;;;;;7.63;5.53;;;22.70;62.70;;;;;;5237950;28;20397;-51
2021/07/03 05:21:41;;;;;;;9.38;5.63;;;22.80;62.80;;;;;;5218676;28;20041;-46
2021/07/03 05:24:14;;;;;;;12.88;5.20;;;22.80;62.80;;;;;;5209242;28;20044;-52
2021/07/03 05:26:46;;;;;;;7.65;5.43;;;22.80;62.90;;;;;;5192286;28;20040;-50
2021/07/03 05:29:19;;;;;;;6.82;5.10;;;22.80;62.90;;;;;;5211004;28;20045;-54
2021/07/03 05:31:51;;;;;;;10.18;5.05;;;22.80;62.90;;;;;;5218458;28;20044;-51
2021/07/03 05:34:24;;;;;;;7.47;5.17;;;22.80;62.90;;;;;;5214320;28;20063;-51
2021/07/03 05:36:57;;;;;;;10.25;5.10;;;22.80;62.80;;;;;;5213447;28;20347;-56
2021/07/03 05:39:30;;;;;;;6.72;5.00;;;22.80;62.80;;;;;;5200659;28;20460;-57
2021/07/03 05:42:02;;;;;;;8.27;4.50;;;22.80;62.90;;;;;;5212824;28;20095;-52
2021/07/03 05:44:35;;;;;;;8.13;5.03;;;22.80;62.90;;;;;;5195017;28;20424;-51
2021/07/03 05:47:08;;;;;;;8.68;4.88;;;22.80;62.90;;;;;;5184150;28;20761;-52
2021/07/03 05:49:41;;;;;;;9.03;5.37;;;22.80;62.90;;;;;;5193857;28;20100;-53
2021/07/03 05:52:13;;;;;;;8.10;4.75;;;22.80;62.90;;;;;;5220563;28;20044;-51
2021/07/03 05:54:46;;;;;;;9.00;5.20;;;22.80;62.90;;;;;;5202022;28;20055;-49
2021/07/03 05:57:19;;;;;;;10.18;5.47;;;22.90;63.00;;;;;;5211390;28;20054;-53
2021/07/03 05:59:51;;;;;;;10.13;4.70;;;22.90;63.00;;;;;;5202792;28;20477;-50
2021/07/03 06:02:23;;;;;;;10.93;5.07;;;22.90;63.00;;;;;;5224571;28;20064;-49
2021/07/03 06:04:56;;;;;;;8.45;5.28;;;22.90;63.10;;;;;;5204335;28;20525;-58
2021/07/03 06:07:28;;;;;;;9.63;5.13;;;22.90;63.50;;;;;;5200496;28;20068;-52
2021/07/03 06:10:01;;;;;;;6.82;4.70;;;22.90;63.20;;;;;;5217738;28;20067;-52
2021/07/03 06:12:33;;;;;;;9.27;4.85;;;22.90;63.20;;;;;;5194994;28;20049;-55
2021/07/03 06:15:07;;;;;;;9.55;4.78;;;22.90;63.20;;;;;;5207247;28;20042;-47
2021/07/03 06:17:40;;;;;;;;;;;22.90;63.20;;;;;;5204347;28;20036;-53
2021/07/03 06:20:13;;;;;;;7.03;4.85;;;22.80;63.20;;;;;;5191958;28;20408;-52
2021/07/03 06:22:46;;;;;;;9.25;4.50;;;22.90;63.30;;;;;;5213927;28;20074;-55
2021/07/03 06:25:18;;;;;;;6.60;4.70;;;22.90;63.30;;;;;;5216310;28;20048;-58
2021/07/03 06:27:51;;;;;;;7.65;4.60;;;22.90;63.40;;;;;;5217162;28;20056;-47
2021/07/03 06:30:23;;;;;;;7.80;4.70;;;22.90;63.50;;;;;;5218967;28;20634;-58
2021/07/03 06:32:56;;;;;;;13.52;5.20;;;22.90;63.40;;;;;;5213869;28;20036;-49
2021/07/03 06:35:28;;;;;;;13.27;5.00;;;22.90;63.50;;;;;;5213919;28;20056;-55
2021/07/03 06:38:03;;;;;;;9.77;4.88;;;22.90;63.60;;;;;;5220057;28;20047;-54
2021/07/03 06:40:35;;;;;;;8.68;4.57;;;22.90;63.60;;;;;;5221897;28;20044;-49
2021/07/03 06:43:08;;;;;;;23.33;6.13;;;22.90;63.70;;;;;;5205569;28;20040;-56
2021/07/03 06:45:40;;;;;;;14.15;5.72;;;22.90;63.80;;;;;;5200732;28;20056;-56
2021/07/03 06:48:13;;;;;;;17.80;5.25;;;22.90;64.00;;;;;;5168985;28;20536;-59
2021/07/03 06:50:46;;;;;;;15.57;5.70;;;22.90;63.90;;;;;;5174660;28;20048;-60
2021/07/03 06:53:18;;;;;;;10.38;5.85;;;23.00;63.60;;;;;;5221045;28;20051;-59
2021/07/03 06:55:51;;;;;;;9.52;5.32;;;23.00;62.70;;;;;;5203635;28;20059;-61
2021/07/03 06:58:23;;;;;;;9.27;6.00;;;23.00;62.40;;;;;;5211738;28;20056;-59
2021/07/03 07:00:56;;;;;;;11.60;6.22;;;23.00;62.10;;;;;;5219776;28;20622;-54
2021/07/03 07:03:28;;;;;;;7.97;5.38;;;23.00;61.80;;;;;;5213344;28;20062;-62
2021/07/03 07:06:01;;;;;;;8.77;5.38;;;23.10;61.50;;;;;;5211493;28;20049;-55
2021/07/03 07:08:33;;;;;;;7.13;5.30;;;23.10;61.10;;;;;;5208844;28;20044;-52
2021/07/03 07:11:06;;;;;;;9.85;5.93;;;23.10;60.80;;;;;;5222367;28;20044;-60
2021/07/03 07:13:38;;;;;;;13.85;5.95;;;23.10;60.90;;;;;;5220455;28;20062;-57
2021/07/03 07:16:11;;;;;;;9.53;5.43;;;23.20;61.20;;;;;;5232701;28;21011;-58
2021/07/03 07:18:43;;;;;;;7.03;4.90;;;23.20;61.20;;;;;;5232432;28;20749;-53
2021/07/03 07:21:16;;;;;;;9.00;5.50;;;23.30;61.20;;;;;;5242790;28;20601;-53
2021/07/03 07:23:48;;;;;;;7.85;5.38;;;23.40;61.30;;;;;;5229546;28;20052;-57
2021/07/03 07:26:21;;;;;;;7.60;5.20;;;23.50;61.20;;;;;;5231443;28;20047;-60
2021/07/03 07:28:54;;;;;;;11.10;5.17;;;23.50;61.20;;;;;;5240405;28;20055;-61
2021/07/03 07:31:26;;;;;;;8.18;6.03;;;23.60;61.20;;;;;;5230597;28;20327;-59
2021/07/03 07:33:59;;;;;;;7.32;5.13;;;23.60;61.10;;;;;;5240315;28;20045;-46
2021/07/03 07:36:31;;;;;;;9.30;5.15;;;23.70;61.20;;;;;;5242426;28;20048;-56
2021/07/03 07:39:05;;;;;;;7.77;5.10;;;23.80;61.20;;;;;;5222603;28;20036;-51
2021/07/03 07:41:37;;;;;;;8.68;4.85;;;23.90;61.10;;;;;;5226495;28;20305;-48
2021/07/03 07:44:10;;;;;;;10.13;5.65;;;23.90;61.00;;;;;;5227133;28;20059;-57
2021/07/03 07:46:42;;;;;;;8.00;5.60;;;24.00;61.00;;;;;;5228283;28;20059;-49
2021/07/03 07:49:15;;;;;;;7.50;5.23;;;24.00;61.00;;;;;;5223675;28;20060;-49
2021/07/03 07:51:47;;;;;;;8.18;4.78;;;24.00;61.00;;;;;;5239802;28;20048;-52
2021/07/03 07:54:20;;;;;;;7.07;5.03;;;24.10;61.10;;;;;;5230871;28;20043;-50
2021/07/03 07:56:52;;;;;;;7.83;5.37;;;24.10;61.00;;;;;;5232096;28;20043;-50
2021/07/03 07:59:28;;;;;;;10.10;5.28;;;24.10;61.10;;;;;;5228366;28;20508;-48
2021/07/03 08:02:00;;;;;;;21.50;6.32;;;24.10;61.10;;;;;;5220164;28;20044;-55
2021/07/03 08:04:33;;;;;;;18.83;6.03;;;24.10;61.10;;;;;;5224402;28;20056;-58
2021/07/03 08:07:05;;;;;;;19.08;5.47;;;24.10;61.20;;;;;;5213664;28;20082;-58
2021/07/03 08:09:38;;;;;;;24.52;6.30;;;24.10;61.30;;;;;;5224968;28;20043;-47
2021/07/03 08:12:12;;;;;;;16.27;5.87;;;24.10;61.30;;;;;;5242941;28;20067;-52
2021/07/03 08:14:44;;;;;;;;;;;24.10;61.20;;;;;;5234003;28;20307;-56
2021/07/03 08:17:18;;;;;;;19.73;6.03;;;24.00;61.20;;;;;;5229525;28;19937;-56
2021/07/03 08:19:50;;;;;;;24.92;5.63;;;24.00;61.20;;;;;;5228769;28;20550;-55
2021/07/03 08:22:23;;;;;;;23.52;6.28;;;24.00;61.10;;;;;;5229102;28;20047;-46
2021/07/03 08:24:57;;;;;;;27.45;6.47;;;24.00;61.10;;;;;;5233888;28;20050;-56
2021/07/03 08:27:38;;;;;;;21.88;5.80;;;24.00;61.30;;;;;;5234382;28;20055;-57
2021/07/03 08:30:20;;;;;;;12.30;5.70;;;24.00;61.50;;;;;;5227731;28;20036;-56
2021/07/03 08:32:57;;;;;;;20.63;6.80;;;24.00;61.10;;;;;;5225620;28;20071;-62
2021/07/03 08:35:34;;;;;;;25.33;6.57;;;24.00;61.10;;;;;;5224183;28;20044;-54
2021/07/03 08:38:11;;;;;;;15.90;6.03;;;24.10;61.00;;;;;;5225515;28;20532;-56
2021/07/03 08:40:45;;;;;;;12.75;5.38;;;24.10;61.10;;;;;;5200974;28;20060;-60
2021/07/03 08:43:17;;;;;;;20.45;6.05;;;24.10;61.30;;;;;;5215826;28;20587;-51
2021/07/03 08:45:58;;;;;;;14.57;5.30;;;24.20;61.40;;;;;;5214472;28;20044;-59
2021/07/03 08:48:31;;;;;;;17.48;5.65;;;24.20;61.10;;;;;;5221593;28;20056;-53
2021/07/03 08:51:03;;;;;;;20.98;7.70;;;24.20;61.10;;;;;;5219624;28;20483;-52
2021/07/03 08:53:36;;;;;;;18.60;6.22;;;24.20;61.00;;;;;;5225293;28;20595;-58
2021/07/03 08:56:08;;;;;;;31.63;8.25;;;24.30;61.00;;;;;;5222058;28;20631;-54
2021/07/03 08:58:41;;;;;;;19.13;6.82;;;24.30;60.80;;;;;;5224035;28;20547;-58
2021/07/03 09:01:14;;;;;;;18.30;6.82;;;24.30;60.70;;;;;;5227399;28;20423;-53
2021/07/03 09:03:55;;;;;;;16.42;6.30;;;24.30;60.60;;;;;;5221275;28;20055;-60
2021/07/03 09:06:33;;;;;;;15.25;5.95;;;24.30;60.30;;;;;;5223157;28;20052;-58
2021/07/03 09:09:06;;;;;;;15.07;5.80;;;24.40;60.40;;;;;;5220874;28;20059;-52
2021/07/03 09:11:39;;;;;;;16.35;5.70;;;24.40;60.40;;;;;;5222171;28;20079;-57
2021/07/03 09:14:11;;;;;;;15.97;5.83;;;24.40;60.20;;;;;;5217222;28;20063;-53
2021/07/03 09:16:44;;;;;;;10.63;6.13;;;24.40;60.20;;;;;;5221274;28;20504;-59
2021/07/03 09:19:29;;;;;;;14.52;6.03;;;24.40;60.20;;;;;;5224875;28;20044;-58
2021/07/03 09:22:01;;;;;;;9.98;5.47;;;24.40;60.10;;;;;;5223621;28;20040;-59
2021/07/03 09:24:34;;;;;;;14.23;6.13;;;24.50;60.20;;;;;;5224779;28;20067;-55
2021/07/03 09:27:08;;;;;;;15.00;5.90;;;24.40;59.50;;;;;;5228610;28;20055;-53
2021/07/03 09:29:53;;;;;;;11.93;5.30;;;24.50;60.10;;;;;;5214253;28;20635;-60
2021/07/03 09:32:27;;;;;;;12.68;6.10;;;24.40;60.00;;;;;;5218988;28;20044;-62
2021/07/03 09:35:06;;;;;;;15.13;5.80;;;24.40;60.10;;;;;;5215886;28;20083;-53
2021/07/03 09:37:39;;;;;;;14.50;5.93;;;24.40;60.00;;;;;;5217813;28;20047;-54
2021/07/03 09:40:12;;;;;;;8.13;5.07;;;24.40;60.10;;;;;;5223989;28;20039;-55
2021/07/03 09:42:44;;;;;;;16.00;5.33;;;24.40;60.10;;;;;;5225891;28;20051;-60
2021/07/03 09:45:17;;;;;;;10.70;6.18;;;24.40;60.10;;;;;;5226023;28;20059;-62
2021/07/03 09:48:11;;;;;;;11.75;5.20;;;24.40;60.10;;;;;;5224790;28;20040;-59
2021/07/03 09:50:44;;;;;;;9.90;5.18;;;24.50;60.10;;;;;;5221318;28;20078;-52
2021/07/03 09:53:18;;;;;;;12.63;5.05;;;24.50;60.00;;;;;;5220292;28;20048;-59
2021/07/03 09:55:51;;;;;;;9.70;5.63;;;24.50;60.00;;;;;;5229144;28;20047;-56
2021/07/03 09:58:23;;;;;;;12.40;5.40;;;24.50;60.00;;;;;;5218238;28;20618;-59
2021/07/03 10:00:56;;;;;;;19.00;5.40;;;24.50;60.00;;;;;;5226421;28;20063;-61
2021/07/03 10:03:28;;;;;;;8.05;5.10;;;24.50;60.00;;;;;;5221208;28;20118;-54
2021/07/03 10:06:03;;;;;;;7.85;4.80;;;24.50;60.00;;;;;;5224341;28;20047;-58
2021/07/03 10:08:43;;;;;;;11.07;5.43;;;24.50;60.00;;;;;;5218747;28;20048;-54
2021/07/03 10:11:19;;;;;;;10.95;5.40;;;24.50;60.00;;;;;;5232459;28;20048;-58
2021/07/03 10:14:02;;;;;;;9.70;4.95;;;24.50;60.00;;;;;;5220165;28;20040;-52
2021/07/03 10:16:35;;;;;;;7.40;5.05;;;24.50;60.00;;;;;;5215498;28;20166;-59
2021/07/03 10:19:15;;;;;;;7.53;4.80;;;24.50;60.10;;;;;;5216872;28;20048;-58
2021/07/03 10:21:52;;;;;;;9.65;5.47;;;24.50;60.00;;;;;;5224609;28;20040;-55
2021/07/03 10:24:25;;;;;;;9.30;4.90;;;24.50;60.00;;;;;;5221813;28;20055;-59
2021/07/03 10:26:57;;;;;;;9.25;4.95;;;24.50;60.00;;;;;;5223240;28;20036;-59
2021/07/03 10:29:40;;;;;;;9.55;5.00;;;24.50;60.00;;;;;;5217755;28;20044;-54
2021/07/03 10:32:23;;;;;;;8.38;5.03;;;24.50;59.90;;;;;;5220339;28;20642;-56
2021/07/03 10:35:20;;;;;;;8.48;5.43;;;24.50;60.00;;;;;;5225389;28;20052;-62
2021/07/03 10:37:55;;;;;;;6.38;4.72;;;24.50;59.90;;;;;;5218166;28;20052;-54
2021/07/03 10:40:30;;;;;;;7.45;4.95;;;24.50;60.00;;;;;;5221925;28;20369;-55
2021/07/03 10:43:13;;;;;;;6.75;4.32;;;24.50;59.90;;;;;;5225105;28;20044;-57
2021/07/03 10:45:52;;;;;;;6.82;4.78;;;24.50;59.90;;;;;;5212792;28;20052;-61
2021/07/03 10:48:26;;;;;;;9.10;5.05;;;24.50;59.90;;;;;;5219794;28;20606;-57
2021/07/03 10:51:11;;;;;;;9.27;5.57;;;24.50;59.90;;;;;;5220189;28;20055;-57
2021/07/03 10:53:43;;;;;;;7.15;4.53;;;24.50;59.90;;;;;;5228124;28;20551;-59
2021/07/03 10:56:17;;;;;;;7.20;4.60;;;24.50;59.90;;;;;;5223376;28;20049;-59
2021/07/03 10:58:49;;;;;;;;;;;24.50;59.90;;;;;;5229781;28;20048;-57
2021/07/03 11:01:21;;;;;;;7.43;4.60;;;24.40;59.90;;;;;;5223856;28;19935;-61
2021/07/03 11:03:54;;;;;;;7.03;4.80;;;24.50;60.00;;;;;;5207370;28;20055;-57
2021/07/03 11:06:26;;;;;;;7.07;4.70;;;24.50;60.00;;;;;;5224784;28;20051;-57
2021/07/03 11:08:59;;;;;;;8.95;4.65;;;24.50;59.90;;;;;;5230467;28;20966;-56
2021/07/03 11:11:39;;;;;;;9.27;4.20;;;24.60;59.90;;;;;;5220780;28;20670;-60
2021/07/03 11:14:17;;;;;;;9.98;4.97;;;24.50;59.80;;;;;;5231424;28;20491;-55
2021/07/03 11:16:52;;;;;;;5.78;4.00;;;24.60;59.90;;;;;;5222751;28;20622;-53
2021/07/03 11:19:27;;;;;;;7.03;4.47;;;24.60;59.80;;;;;;5227280;28;20044;-58
2021/07/03 11:22:08;;;;;;;8.15;4.68;;;24.60;59.80;;;;;;5226392;28;20048;-55
2021/07/03 11:24:48;;;;;;;7.72;5.05;;;24.60;59.80;;;;;;5228764;28;20044;-55
2021/07/03 11:27:27;;;;;;;7.35;4.88;;;24.60;59.80;;;;;;5232246;28;20664;-56
2021/07/03 11:30:15;;;;;;;6.45;4.55;;;24.60;59.70;;;;;;5231344;28;20448;-54
2021/07/03 11:32:54;;;;;;;5.78;4.63;;;24.60;59.70;;;;;;5238832;28;20051;-62
2021/07/03 11:35:28;;;;;;;5.40;4.45;;;24.60;59.70;;;;;;5226701;28;20058;-60
2021/07/03 11:38:03;;;;;;;5.13;4.40;;;24.60;59.70;;;;;;5225272;28;20032;-61
2021/07/03 11:40:36;;;;;;;5.65;4.20;;;24.60;59.60;;;;;;5232644;28;20044;-58
2021/07/03 11:43:09;;;;;;;6.57;4.47;;;24.60;59.60;;;;;;5231875;28;20044;-62
2021/07/03 11:45:42;;;;;;;4.85;3.95;;;24.70;59.60;;;;;;5228922;27;21204;-59
2021/07/03 11:48:17;;;;;;;5.20;3.88;;;24.70;59.60;;;;;;5229615;28;20040;-61
2021/07/03 11:51:00;;;;;;;7.78;4.10;;;24.70;59.50;;;;;;5224357;28;20058;-57
2021/07/03 11:53:34;;;;;;;7.93;4.55;;;24.70;59.50;;;;;;5228905;28;20063;-59
2021/07/03 11:56:07;;;;;;;5.75;4.47;;;24.70;59.50;;;;;;5230474;28;20893;-52
2021/07/03 11:58:41;;;;;;;7.57;4.30;;;24.70;59.40;;;;;;5242846;27;20051;-57
2021/07/03 12:01:22;;;;;;;7.72;4.32;;;24.70;59.50;;;;;;5227089;28;20036;-61
2021/07/03 12:03:55;;;;;;;5.97;4.45;;;24.70;59.50;;;;;;5228578;28;20051;-59
2021/07/03 12:06:28;;;;;;;7.53;4.68;;;24.70;59.50;;;;;;5225656;28;20082;-62
2021/07/03 12:09:11;;;;;;;6.55;4.43;;;24.70;59.50;;;;;;5225482;28;20676;-55
2021/07/03 12:11:48;;;;;;;4.85;3.78;;;24.70;59.40;;;;;;5221529;28;20050;-61
2021/07/03 12:14:21;;;;;;;7.10;4.43;;;24.70;59.50;;;;;;5212808;28;20048;-62
2021/07/03 12:16:58;;;;;;;8.95;4.10;;;24.70;59.50;;;;;;5202533;28;20048;-57
2021/07/03 12:19:30;;;;;;;6.95;3.83;;;24.70;59.60;;;;;;5209411;28;20547;-54
2021/07/03 12:22:06;;;;;;;9.63;4.60;;;24.80;59.60;;;;;;5211791;28;20048;-60
2021/07/03 12:24:38;;;;;;;8.85;4.30;;;24.80;59.60;;;;;;5220996;27;20052;-57
2021/07/03 12:27:22;;;;;;;8.20;4.05;;;24.80;59.60;;;;;;5224926;28;20401;-59
2021/07/03 12:30:04;;;;;;;8.57;3.63;;;24.80;59.70;;;;;;5222182;28;20044;-55
2021/07/03 12:32:59;;;;;;;7.67;4.37;;;24.80;59.70;;;;;;5223280;28;20417;-57
2021/07/03 12:35:37;;;;;;;6.63;4.45;;;24.90;59.80;;;;;;5225854;28;20424;-60
2021/07/03 12:38:11;;;;;;;7.07;4.47;;;24.90;59.90;;;;;;5216778;28;20047;-55
2021/07/03 12:40:44;;;;;;;8.88;4.20;;;24.90;59.90;;;;;;5217727;28;20048;-57
2021/07/03 12:43:16;;;;;;;7.03;4.00;;;25.00;60.00;;;;;;5205370;28;20055;-54
2021/07/03 12:45:58;;;;;;;8.07;4.50;;;24.90;59.90;;;;;;5212778;28;20102;-57
2021/07/03 12:48:35;;;;;;;6.72;4.22;;;25.00;60.00;;;;;;5215667;28;20707;-59
2021/07/03 12:51:13;;;;;;;7.30;3.80;;;25.00;60.10;;;;;;5203074;28;20048;-56
2021/07/03 12:53:46;;;;;;;;;;;25.00;60.10;;;;;;5221430;28;20039;-49
2021/07/03 12:56:20;;;;;;;8.02;4.18;;;25.00;60.10;;;;;;5213768;28;20304;-52
2021/07/03 12:59:03;;;;;;;10.63;4.00;;;25.00;60.00;;;;;;5216567;28;20083;-54
2021/07/03 13:01:39;;;;;;;6.53;4.05;;;25.00;60.10;;;;;;5209686;28;20055;-60
2021/07/03 13:04:12;;;;;;;8.23;4.07;;;25.00;60.10;;;;;;5217716;28;20040;-53
2021/07/03 13:06:48;;;;;;;6.47;4.00;;;25.10;60.20;;;;;;5216254;28;20507;-56
2021/07/03 13:09:21;;;;;;;6.07;3.83;;;25.10;60.20;;;;;;5214994;28;20082;-60
2021/07/03 13:11:54;;;;;;;8.20;4.28;;;25.10;60.20;;;;;;5225908;28;20052;-57
2021/07/03 13:14:26;;;;;;;5.38;3.85;;;25.10;60.20;;;;;;5223733;28;20051;-56
2021/07/03 13:16:59;;;;;;;9.02;4.07;;;25.10;60.20;;;;;;5223268;28;20527;-55
2021/07/03 13:19:31;;;;;;;5.97;4.18;;;25.20;60.40;;;;;;5203854;28;20055;-53
2021/07/03 13:22:04;;;;;;;12.67;4.33;;;25.20;60.30;;;;;;5218705;28;20283;-59